sensor_id;sensor_type;location;lat;lon;timestamp;P1;P2;P0
68341;PMS7003;55668;52.310;21.066;2023-03-21T00:33:42;15;15;
68341;PMS7003;55668;52.310;21.066;2023-03-21T01:19:52;14;14;
68341;PMS7003;55668;52.310;21.066;2023-03-21T01:41:24;14;14;
68341;PMS7003;55668;52.310;21.066;2023-03-21T01:52:17;16;16;
68341;PMS7003;55668;52.310;21.066;2023-03-21T02:07:35;14;14;
68341;PMS7003;55668;52.310;21.066;2023-03-21T02:22:14;16;16;
68341;PMS7003;55668;52.310;21.066;2023-03-21T02:36:55;14;14;
68341;PMS7003;55668;52.310;21.066;2023-03-21T03:23:15;14;14;
68341;PMS7003;55668;52.310;21.066;2023-03-21T03:53:42;14;14;
68341;PMS7003;55668;52.310;21.066;2023-03-21T04:39:33;12;12;
68341;PMS7003;55668;52.310;21.066;2023-03-21T05:25:43;9;9;
68341;PMS7003;55668;52.310;21.066;2023-03-21T07:13:05;9;9;
68341;PMS7003;55668;52.310;21.066;2023-03-21T07:28:23;8;8;
68341;PMS7003;55668;52.310;21.066;2023-03-21T07:43:57;11;9;
68341;PMS7003;55668;52.310;21.066;2023-03-21T07:59:11;9;9;
68341;PMS7003;55668;52.310;21.066;2023-03-21T08:45:27;8;8;
68341;PMS7003;55668;52.310;21.066;2023-03-21T09:00:48;7;7;
68341;PMS7003;55668;52.310;21.066;2023-03-21T10:02:19;6;6;
68341;PMS7003;55668;52.310;21.066;2023-03-21T10:48:39;3;3;
68341;PMS7003;55668;52.310;21.066;2023-03-21T11:03:23;4;4;
68341;PMS7003;55668;52.310;21.066;2023-03-21T11:18:42;7;5;
68341;PMS7003;55668;52.310;21.066;2023-03-21T11:34:44;5;5;
68341;PMS7003;55668;52.310;21.066;2023-03-21T11:53:11;4;4;
68341;PMS7003;55668;52.310;21.066;2023-03-21T12:04:51;4;4;
68341;PMS7003;55668;52.310;21.066;2023-03-21T12:20:28;3;3;
68341;PMS7003;55668;52.310;21.066;2023-03-21T12:51:41;4;4;
68341;PMS7003;55668;52.310;21.066;2023-03-21T13:06:42;3;3;
68341;PMS7003;55668;52.310;21.066;2023-03-21T13:21:48;2;2;
68341;PMS7003;55668;52.310;21.066;2023-03-21T13:37:41;2;2;
68341;PMS7003;55668;52.310;21.066;2023-03-21T14:07:57;3;3;
68341;PMS7003;55668;52.310;21.066;2023-03-21T14:23:41;10;10;
68341;PMS7003;55668;52.310;21.066;2023-03-21T14:39:12;8;8;
68341;PMS7003;55668;52.310;21.066;2023-03-21T14:54:24;6;6;
68341;PMS7003;55668;52.310;21.066;2023-03-21T15:09:03;8;6;
68341;PMS7003;55668;52.310;21.066;2023-03-21T15:40:08;6;6;
68341;PMS7003;55668;52.310;21.066;2023-03-21T16:25:42;6;6;
68341;PMS7003;55668;52.310;21.066;2023-03-21T16:44:27;5;5;
68341;PMS7003;55668;52.310;21.066;2023-03-21T16:56:36;4;4;
68341;PMS7003;55668;52.310;21.066;2023-03-21T17:12:18;6;4;
68341;PMS7003;55668;52.310;21.066;2023-03-21T17:28:55;5;5;
68341;PMS7003;55668;52.310;21.066;2023-03-21T17:42:46;4;4;
68341;PMS7003;55668;52.310;21.066;2023-03-21T18:00:43;5;5;
68341;PMS7003;55668;52.310;21.066;2023-03-21T18:15:05;16;16;
68341;PMS7003;55668;52.310;21.066;2023-03-21T18:32:23;18;18;
68341;PMS7003;55668;52.310;21.066;2023-03-21T18:44:20;24;24;
68341;PMS7003;55668;52.310;21.066;2023-03-21T19:01:18;22;22;
68341;PMS7003;55668;52.310;21.066;2023-03-21T19:16:10;20;19;
68341;PMS7003;55668;52.310;21.066;2023-03-21T19:31:57;19;19;
68341;PMS7003;55668;52.310;21.066;2023-03-21T19:50:50;16;16;
68341;PMS7003;55668;52.310;21.066;2023-03-21T20:01:27;15;14;
68341;PMS7003;55668;52.310;21.066;2023-03-21T20:16:05;18;18;
68341;PMS7003;55668;52.310;21.066;2023-03-21T20:33:08;23;23;
68341;PMS7003;55668;52.310;21.066;2023-03-21T20:47:50;27;27;
68341;PMS7003;55668;52.310;21.066;2023-03-21T21:02:24;36;33;
68341;PMS7003;55668;52.310;21.066;2023-03-21T21:19:01;42;35;
68341;PMS7003;55668;52.310;21.066;2023-03-21T21:48:42;48;41;
68341;PMS7003;55668;52.310;21.066;2023-03-21T22:04:44;52;44;
68341;PMS7003;55668;52.310;21.066;2023-03-21T22:34:37;44;39;
68341;PMS7003;55668;52.310;21.066;2023-03-21T22:49:41;45;39;
68341;PMS7003;55668;52.310;21.066;2023-03-21T23:05:22;40;36;
68341;PMS7003;55668;52.310;21.066;2023-03-21T23:20:48;35;33;
68341;PMS7003;55668;52.310;21.066;2023-03-21T23:36:45;36;34;
68341;PMS7003;55668;52.310;21.066;2023-03-21T23:51:44;39;36;
